Saint-Timothee, Canada
Current Conditions -  °F | °C
As of 7:25 PM on Monday 24 Nov 2014 (Local Time) from CYUL Reporting Station
Broken Clouds Broken Clouds  
Wind Chill: 57°   Ceiling: 6500
Heat Index: 57°   Visibility: 15mi
Dew Point: 50°   Wind: 23mph
Humidity: 77%   Direction: 230°SW
Pressure: 29.35"   Gusts: 35mph
Location:  45.28°N, 74.05°W
Report Text: CYUL 250025Z 23020G30KT 15SM BKN065 BKN090 14/10 A2935 RMK SC5AC2 PRESRR SLP940 DENSITY ALT 700FT
Loading
Personal Weather Stations






























Interactive Weather Map New forecast layout! Learn more

10-Day Weather Forecast

Advertisements
Track Severe Weather on mobile